sensor_id;sensor_type;location;lat;lon;timestamp;temperature;humidity
55173;DHT22;41061;52.822;6.860;2023-05-16T00:02:15;9.60;99.90
55173;DHT22;41061;52.822;6.860;2023-05-16T00:04:41;9.60;99.90
55173;DHT22;41061;52.822;6.860;2023-05-16T00:07:07;9.50;99.90
55173;DHT22;41061;52.822;6.860;2023-05-16T00:09:33;9.50;99.90
55173;DHT22;41061;52.822;6.860;2023-05-16T00:11:58;9.50;99.90
55173;DHT22;41061;52.822;6.860;2023-05-16T00:14:24;9.50;99.90
55173;DHT22;41061;52.822;6.860;2023-05-16T00:16:52;9.40;99.90
55173;DHT22;41061;52.822;6.860;2023-05-16T00:19:18;9.40;99.90
55173;DHT22;41061;52.822;6.860;2023-05-16T00:21:45;9.40;99.90
55173;DHT22;41061;52.822;6.860;2023-05-16T00:24:10;9.30;99.90
55173;DHT22;41061;52.822;6.860;2023-05-16T00:26:36;9.30;99.90
55173;DHT22;41061;52.822;6.860;2023-05-16T00:29:02;9.30;99.90
55173;DHT22;41061;52.822;6.860;2023-05-16T00:31:27;9.20;99.90
55173;DHT22;41061;52.822;6.860;2023-05-16T00:33:53;9.20;99.90
55173;DHT22;41061;52.822;6.860;2023-05-16T00:36:19;9.20;99.90
55173;DHT22;41061;52.822;6.860;2023-05-16T00:38:46;9.20;99.90
55173;DHT22;41061;52.822;6.860;2023-05-16T00:41:12;9.10;99.90
55173;DHT22;41061;52.822;6.860;2023-05-16T00:43:38;9.10;99.90
55173;DHT22;41061;52.822;6.860;2023-05-16T00:46:04;9.10;99.90
55173;DHT22;41061;52.822;6.860;2023-05-16T00:48:30;9.10;99.90
55173;DHT22;41061;52.822;6.860;2023-05-16T00:50:56;9.00;99.90
55173;DHT22;41061;52.822;6.860;2023-05-16T00:53:23;8.90;99.90
55173;DHT22;41061;52.822;6.860;2023-05-16T00:55:50;8.90;99.90
55173;DHT22;41061;52.822;6.860;2023-05-16T00:58:17;8.90;99.90
55173;DHT22;41061;52.822;6.860;2023-05-16T01:00:43;8.80;99.90
55173;DHT22;41061;52.822;6.860;2023-05-16T01:03:10;8.80;99.90
55173;DHT22;41061;52.822;6.860;2023-05-16T01:05:36;8.80;99.90
55173;DHT22;41061;52.822;6.860;2023-05-16T01:08:02;8.70;99.90
55173;DHT22;41061;52.822;6.860;2023-05-16T01:10:49;8.70;99.90
55173;DHT22;41061;52.822;6.860;2023-05-16T01:13:26;8.70;99.90
55173;DHT22;41061;52.822;6.860;2023-05-16T01:16:27;8.60;99.90
55173;DHT22;41061;52.822;6.860;2023-05-16T01:21:52;8.60;99.90
55173;DHT22;41061;52.822;6.860;2023-05-16T01:25:17;8.60;99.90
55173;DHT22;41061;52.822;6.860;2023-05-16T01:27:13;8.60;99.90
55173;DHT22;41061;52.822;6.860;2023-05-16T01:29:39;8.60;99.90
55173;DHT22;41061;52.822;6.860;2023-05-16T01:32:05;8.60;99.90
55173;DHT22;41061;52.822;6.860;2023-05-16T01:34:30;8.60;99.90
55173;DHT22;41061;52.822;6.860;2023-05-16T01:37:23;8.60;99.90
55173;DHT22;41061;52.822;6.860;2023-05-16T01:39:56;8.60;99.90
55173;DHT22;41061;52.822;6.860;2023-05-16T01:42:26;8.60;99.90
55173;DHT22;41061;52.822;6.860;2023-05-16T01:47:40;8.50;99.90
55173;DHT22;41061;52.822;6.860;2023-05-16T01:53:02;8.50;99.90
55173;DHT22;41061;52.822;6.860;2023-05-16T01:55:48;8.50;99.90
55173;DHT22;41061;52.822;6.860;2023-05-16T01:58:19;8.40;99.90
55173;DHT22;41061;52.822;6.860;2023-05-16T02:00:45;8.40;99.90
55173;DHT22;41061;52.822;6.860;2023-05-16T02:03:11;8.30;99.90
55173;DHT22;41061;52.822;6.860;2023-05-16T02:05:37;8.30;99.90
55173;DHT22;41061;52.822;6.860;2023-05-16T02:08:03;8.40;99.90
55173;DHT22;41061;52.822;6.860;2023-05-16T02:10:29;8.40;99.90
55173;DHT22;41061;52.822;6.860;2023-05-16T02:12:56;8.30;99.90
55173;DHT22;41061;52.822;6.860;2023-05-16T02:15:22;8.30;99.90
55173;DHT22;41061;52.822;6.860;2023-05-16T02:17:48;8.30;99.90
55173;DHT22;41061;52.822;6.860;2023-05-16T02:20:14;8.30;99.90
55173;DHT22;41061;52.822;6.860;2023-05-16T02:22:40;8.40;99.90
55173;DHT22;41061;52.822;6.860;2023-05-16T02:25:07;8.10;99.90
55173;DHT22;41061;52.822;6.860;2023-05-16T02:27:33;8.20;99.90
55173;DHT22;41061;52.822;6.860;2023-05-16T02:29:59;8.30;99.90
55173;DHT22;41061;52.822;6.860;2023-05-16T02:32:24;8.20;99.90
55173;DHT22;41061;52.822;6.860;2023-05-16T02:34:50;8.20;99.90
55173;DHT22;41061;52.822;6.860;2023-05-16T02:37:16;8.20;99.90
55173;DHT22;41061;52.822;6.860;2023-05-16T02:39:42;8.10;99.90
55173;DHT22;41061;52.822;6.860;2023-05-16T02:42:07;8.10;99.90
55173;DHT22;41061;52.822;6.860;2023-05-16T02:44:33;8.10;99.90
55173;DHT22;41061;52.822;6.860;2023-05-16T02:46:59;8.10;99.90
55173;DHT22;41061;52.822;6.860;2023-05-16T02:49:25;8.20;99.90
55173;DHT22;41061;52.822;6.860;2023-05-16T02:51:51;8.10;99.90
55173;DHT22;41061;52.822;6.860;2023-05-16T02:54:16;8.00;99.90
55173;DHT22;41061;52.822;6.860;2023-05-16T02:56:42;8.00;99.90
55173;DHT22;41061;52.822;6.860;2023-05-16T02:59:10;8.00;99.90
55173;DHT22;41061;52.822;6.860;2023-05-16T03:01:36;8.00;99.90
55173;DHT22;41061;52.822;6.860;2023-05-16T03:04:02;8.00;99.90
55173;DHT22;41061;52.822;6.860;2023-05-16T03:06:27;8.00;99.90
55173;DHT22;41061;52.822;6.860;2023-05-16T03:08:54;7.90;99.90
55173;DHT22;41061;52.822;6.860;2023-05-16T03:11:21;7.90;99.90
55173;DHT22;41061;52.822;6.860;2023-05-16T03:13:47;7.90;99.90
55173;DHT22;41061;52.822;6.860;2023-05-16T03:16:13;7.80;99.90
55173;DHT22;41061;52.822;6.860;2023-05-16T03:18:40;7.90;99.90
55173;DHT22;41061;52.822;6.860;2023-05-16T03:21:05;7.90;99.90
55173;DHT22;41061;52.822;6.860;2023-05-16T03:23:31;7.90;99.90
55173;DHT22;41061;52.822;6.860;2023-05-16T03:25:57;7.90;99.90
55173;DHT22;41061;52.822;6.860;2023-05-16T03:28:23;7.90;99.90
55173;DHT22;41061;52.822;6.860;2023-05-16T03:30:49;7.80;99.90
55173;DHT22;41061;52.822;6.860;2023-05-16T03:33:15;7.90;99.90
55173;DHT22;41061;52.822;6.860;2023-05-16T03:35:41;8.00;99.90
55173;DHT22;41061;52.822;6.860;2023-05-16T03:38:07;8.00;99.90
55173;DHT22;41061;52.822;6.860;2023-05-16T03:40:34;8.10;99.90
55173;DHT22;41061;52.822;6.860;2023-05-16T03:43:00;8.20;99.90
55173;DHT22;41061;52.822;6.860;2023-05-16T03:45:26;8.10;99.90
55173;DHT22;41061;52.822;6.860;2023-05-16T03:47:51;8.10;99.90
55173;DHT22;41061;52.822;6.860;2023-05-16T03:50:17;8.20;99.90
55173;DHT22;41061;52.822;6.860;2023-05-16T03:52:43;8.20;99.90
55173;DHT22;41061;52.822;6.860;2023-05-16T03:55:09;8.20;99.90
55173;DHT22;41061;52.822;6.860;2023-05-16T03:57:36;8.20;99.90
55173;DHT22;41061;52.822;6.860;2023-05-16T04:00:07;8.10;99.90
55173;DHT22;41061;52.822;6.860;2023-05-16T04:02:33;8.10;99.90
55173;DHT22;41061;52.822;6.860;2023-05-16T04:04:59;8.20;99.90
55173;DHT22;41061;52.822;6.860;2023-05-16T04:07:24;8.20;99.90
55173;DHT22;41061;52.822;6.860;2023-05-16T04:09:51;8.10;99.90
55173;DHT22;41061;52.822;6.860;2023-05-16T04:12:16;8.20;99.90
55173;DHT22;41061;52.822;6.860;2023-05-16T04:14:42;8.20;99.90
55173;DHT22;41061;52.822;6.860;2023-05-16T04:17:09;8.30;99.90
55173;DHT22;41061;52.822;6.860;2023-05-16T04:19:35;8.30;99.90
55173;DHT22;41061;52.822;6.860;2023-05-16T04:22:01;8.40;99.90
55173;DHT22;41061;52.822;6.860;2023-05-16T04:24:26;8.40;99.90
55173;DHT22;41061;52.822;6.860;2023-05-16T04:26:53;8.50;99.90
55173;DHT22;41061;52.822;6.860;2023-05-16T04:29:20;8.50;99.90
55173;DHT22;41061;52.822;6.860;2023-05-16T04:31:46;8.40;99.90
55173;DHT22;41061;52.822;6.860;2023-05-16T04:34:12;8.50;99.90
55173;DHT22;41061;52.822;6.860;2023-05-16T04:36:38;8.50;99.90
55173;DHT22;41061;52.822;6.860;2023-05-16T04:39:04;8.50;99.90
55173;DHT22;41061;52.822;6.860;2023-05-16T04:41:29;8.40;99.90
55173;DHT22;41061;52.822;6.860;2023-05-16T04:43:55;8.60;99.90
55173;DHT22;41061;52.822;6.860;2023-05-16T04:46:20;8.50;99.90
55173;DHT22;41061;52.822;6.860;2023-05-16T04:48:46;8.60;99.90
55173;DHT22;41061;52.822;6.860;2023-05-16T04:51:12;8.60;99.90
55173;DHT22;41061;52.822;6.860;2023-05-16T04:53:38;8.60;99.90
55173;DHT22;41061;52.822;6.860;2023-05-16T04:56:03;8.90;99.90
55173;DHT22;41061;52.822;6.860;2023-05-16T04:58:30;8.70;99.90
55173;DHT22;41061;52.822;6.860;2023-05-16T05:00:56;8.80;99.90
55173;DHT22;41061;52.822;6.860;2023-05-16T05:03:22;8.80;99.90
55173;DHT22;41061;52.822;6.860;2023-05-16T05:05:48;8.90;99.90
55173;DHT22;41061;52.822;6.860;2023-05-16T05:08:14;9.00;99.90
55173;DHT22;41061;52.822;6.860;2023-05-16T05:10:39;9.00;99.90
55173;DHT22;41061;52.822;6.860;2023-05-16T05:13:06;9.10;99.90
55173;DHT22;41061;52.822;6.860;2023-05-16T05:15:31;9.10;99.90
55173;DHT22;41061;52.822;6.860;2023-05-16T05:17:57;9.20;99.90
55173;DHT22;41061;52.822;6.860;2023-05-16T05:20:23;9.30;99.90
55173;DHT22;41061;52.822;6.860;2023-05-16T05:22:49;9.30;99.90
55173;DHT22;41061;52.822;6.860;2023-05-16T05:25:14;9.40;99.90
55173;DHT22;41061;52.822;6.860;2023-05-16T05:27:40;9.50;99.90
55173;DHT22;41061;52.822;6.860;2023-05-16T05:30:06;9.60;99.90
55173;DHT22;41061;52.822;6.860;2023-05-16T05:32:32;9.60;99.90
55173;DHT22;41061;52.822;6.860;2023-05-16T05:34:58;9.70;99.90
55173;DHT22;41061;52.822;6.860;2023-05-16T05:37:25;9.80;99.90
55173;DHT22;41061;52.822;6.860;2023-05-16T05:39:51;9.90;99.90
55173;DHT22;41061;52.822;6.860;2023-05-16T05:42:16;9.90;99.90
55173;DHT22;41061;52.822;6.860;2023-05-16T05:44:42;9.90;99.90
55173;DHT22;41061;52.822;6.860;2023-05-16T05:47:08;10.00;99.90
55173;DHT22;41061;52.822;6.860;2023-05-16T05:49:34;10.10;99.90
55173;DHT22;41061;52.822;6.860;2023-05-16T05:52:00;10.20;99.90
55173;DHT22;41061;52.822;6.860;2023-05-16T05:54:26;10.20;99.90
55173;DHT22;41061;52.822;6.860;2023-05-16T05:56:52;10.40;99.90
55173;DHT22;41061;52.822;6.860;2023-05-16T05:59:17;10.40;99.90
55173;DHT22;41061;52.822;6.860;2023-05-16T06:01:43;10.40;99.90
55173;DHT22;41061;52.822;6.860;2023-05-16T06:04:09;10.50;99.90
55173;DHT22;41061;52.822;6.860;2023-05-16T06:06:36;10.60;99.90
55173;DHT22;41061;52.822;6.860;2023-05-16T06:09:02;10.60;99.90
55173;DHT22;41061;52.822;6.860;2023-05-16T06:11:28;10.70;99.90
55173;DHT22;41061;52.822;6.860;2023-05-16T06:13:54;10.80;99.90
55173;DHT22;41061;52.822;6.860;2023-05-16T06:16:23;10.90;99.90
55173;DHT22;41061;52.822;6.860;2023-05-16T06:18:49;10.90;99.90
55173;DHT22;41061;52.822;6.860;2023-05-16T06:21:15;11.00;99.90
55173;DHT22;41061;52.822;6.860;2023-05-16T06:23:41;11.00;99.90
55173;DHT22;41061;52.822;6.860;2023-05-16T06:26:07;11.00;99.90
55173;DHT22;41061;52.822;6.860;2023-05-16T06:28:33;11.00;99.90
55173;DHT22;41061;52.822;6.860;2023-05-16T06:30:58;11.10;99.90
55173;DHT22;41061;52.822;6.860;2023-05-16T06:33:24;11.10;99.90
55173;DHT22;41061;52.822;6.860;2023-05-16T06:35:51;11.20;99.90
55173;DHT22;41061;52.822;6.860;2023-05-16T06:38:17;11.20;99.90
55173;DHT22;41061;52.822;6.860;2023-05-16T06:40:46;11.20;99.90
55173;DHT22;41061;52.822;6.860;2023-05-16T06:43:12;11.30;99.90
55173;DHT22;41061;52.822;6.860;2023-05-16T06:45:38;11.30;99.90
55173;DHT22;41061;52.822;6.860;2023-05-16T06:48:05;11.40;99.90
55173;DHT22;41061;52.822;6.860;2023-05-16T06:50:32;11.60;99.90
55173;DHT22;41061;52.822;6.860;2023-05-16T06:52:57;11.50;99.90
55173;DHT22;41061;52.822;6.860;2023-05-16T06:55:23;11.50;99.90
55173;DHT22;41061;52.822;6.860;2023-05-16T06:57:49;11.40;99.90
55173;DHT22;41061;52.822;6.860;2023-05-16T07:00:15;11.40;99.90
55173;DHT22;41061;52.822;6.860;2023-05-16T07:02:41;11.50;99.90
55173;DHT22;41061;52.822;6.860;2023-05-16T07:05:07;11.60;99.90
55173;DHT22;41061;52.822;6.860;2023-05-16T07:07:33;11.70;99.90
55173;DHT22;41061;52.822;6.860;2023-05-16T07:09:59;11.70;99.90
55173;DHT22;41061;52.822;6.860;2023-05-16T07:12:25;11.70;99.90
55173;DHT22;41061;52.822;6.860;2023-05-16T07:14:51;11.80;99.90
55173;DHT22;41061;52.822;6.860;2023-05-16T07:17:17;11.90;99.90
55173;DHT22;41061;52.822;6.860;2023-05-16T07:19:42;12.10;99.90
55173;DHT22;41061;52.822;6.860;2023-05-16T07:22:08;12.40;99.90
55173;DHT22;41061;52.822;6.860;2023-05-16T07:24:35;12.30;99.90
55173;DHT22;41061;52.822;6.860;2023-05-16T07:27:01;12.20;99.90
55173;DHT22;41061;52.822;6.860;2023-05-16T07:29:26;12.20;99.90
55173;DHT22;41061;52.822;6.860;2023-05-16T07:31:52;12.50;99.90
55173;DHT22;41061;52.822;6.860;2023-05-16T07:34:18;12.60;99.90
55173;DHT22;41061;52.822;6.860;2023-05-16T07:36:43;12.70;99.90
55173;DHT22;41061;52.822;6.860;2023-05-16T07:39:09;12.60;99.90
55173;DHT22;41061;52.822;6.860;2023-05-16T07:41:35;12.60;99.90
55173;DHT22;41061;52.822;6.860;2023-05-16T07:44:01;12.40;99.90
55173;DHT22;41061;52.822;6.860;2023-05-16T07:46:26;12.40;99.90
55173;DHT22;41061;52.822;6.860;2023-05-16T07:48:52;12.50;99.90
55173;DHT22;41061;52.822;6.860;2023-05-16T07:51:18;12.60;99.90
55173;DHT22;41061;52.822;6.860;2023-05-16T07:53:43;12.60;99.90
55173;DHT22;41061;52.822;6.860;2023-05-16T07:56:10;12.80;99.90
55173;DHT22;41061;52.822;6.860;2023-05-16T07:58:37;13.10;99.90
55173;DHT22;41061;52.822;6.860;2023-05-16T08:01:03;13.10;99.90
55173;DHT22;41061;52.822;6.860;2023-05-16T08:03:29;13.10;99.90
55173;DHT22;41061;52.822;6.860;2023-05-16T08:05:54;13.30;99.90
55173;DHT22;41061;52.822;6.860;2023-05-16T08:08:21;13.30;99.90
55173;DHT22;41061;52.822;6.860;2023-05-16T08:10:46;13.10;99.90
55173;DHT22;41061;52.822;6.860;2023-05-16T08:13:12;13.00;99.90
55173;DHT22;41061;52.822;6.860;2023-05-16T08:15:38;13.00;99.90
55173;DHT22;41061;52.822;6.860;2023-05-16T08:18:12;13.00;99.90
55173;DHT22;41061;52.822;6.860;2023-05-16T08:20:39;13.00;99.90
55173;DHT22;41061;52.822;6.860;2023-05-16T08:23:06;12.90;99.90
55173;DHT22;41061;52.822;6.860;2023-05-16T08:25:32;12.90;99.90
55173;DHT22;41061;52.822;6.860;2023-05-16T08:27:58;13.10;99.90
55173;DHT22;41061;52.822;6.860;2023-05-16T08:30:24;13.20;99.90
55173;DHT22;41061;52.822;6.860;2023-05-16T08:32:50;13.10;99.90
55173;DHT22;41061;52.822;6.860;2023-05-16T08:35:16;13.00;99.90
55173;DHT22;41061;52.822;6.860;2023-05-16T08:37:41;13.00;99.90
55173;DHT22;41061;52.822;6.860;2023-05-16T08:40:08;13.10;99.90
55173;DHT22;41061;52.822;6.860;2023-05-16T08:42:35;13.10;99.90
55173;DHT22;41061;52.822;6.860;2023-05-16T08:45:02;13.20;99.90
55173;DHT22;41061;52.822;6.860;2023-05-16T08:47:30;13.50;99.90
55173;DHT22;41061;52.822;6.860;2023-05-16T08:49:57;13.70;99.90
55173;DHT22;41061;52.822;6.860;2023-05-16T08:52:26;13.70;99.90
55173;DHT22;41061;52.822;6.860;2023-05-16T08:55:01;13.70;99.90
55173;DHT22;41061;52.822;6.860;2023-05-16T08:57:31;13.80;99.90
55173;DHT22;41061;52.822;6.860;2023-05-16T08:59:59;13.80;99.90
55173;DHT22;41061;52.822;6.860;2023-05-16T09:02:25;13.70;99.90
55173;DHT22;41061;52.822;6.860;2023-05-16T09:04:52;13.70;99.90
55173;DHT22;41061;52.822;6.860;2023-05-16T09:07:18;13.60;99.90
55173;DHT22;41061;52.822;6.860;2023-05-16T09:09:44;13.70;99.90
55173;DHT22;41061;52.822;6.860;2023-05-16T09:12:10;13.80;99.90
55173;DHT22;41061;52.822;6.860;2023-05-16T09:14:36;13.60;99.90
55173;DHT22;41061;52.822;6.860;2023-05-16T09:17:04;13.60;99.90
55173;DHT22;41061;52.822;6.860;2023-05-16T09:19:40;13.90;99.90
55173;DHT22;41061;52.822;6.860;2023-05-16T09:22:16;14.10;99.90
55173;DHT22;41061;52.822;6.860;2023-05-16T09:24:44;14.40;99.90
55173;DHT22;41061;52.822;6.860;2023-05-16T09:27:12;14.50;99.90
55173;DHT22;41061;52.822;6.860;2023-05-16T09:29:49;14.60;99.90
55173;DHT22;41061;52.822;6.860;2023-05-16T09:32:16;14.60;99.40
55173;DHT22;41061;52.822;6.860;2023-05-16T09:34:47;14.30;99.40
55173;DHT22;41061;52.822;6.860;2023-05-16T09:37:19;14.10;99.60
55173;DHT22;41061;52.822;6.860;2023-05-16T09:39:49;13.80;99.60
55173;DHT22;41061;52.822;6.860;2023-05-16T09:42:17;13.70;99.90
55173;DHT22;41061;52.822;6.860;2023-05-16T09:44:51;13.80;99.90
55173;DHT22;41061;52.822;6.860;2023-05-16T09:47:18;14.10;97.60
55173;DHT22;41061;52.822;6.860;2023-05-16T09:49:45;14.20;98.00
55173;DHT22;41061;52.822;6.860;2023-05-16T09:52:15;14.10;96.10
55173;DHT22;41061;52.822;6.860;2023-05-16T09:54:41;14.00;95.80
55173;DHT22;41061;52.822;6.860;2023-05-16T09:57:06;13.70;97.00
55173;DHT22;41061;52.822;6.860;2023-05-16T09:59:36;13.50;97.40
55173;DHT22;41061;52.822;6.860;2023-05-16T10:02:07;13.30;99.00
55173;DHT22;41061;52.822;6.860;2023-05-16T10:04:33;13.20;99.90
55173;DHT22;41061;52.822;6.860;2023-05-16T10:07:02;13.30;99.90
55173;DHT22;41061;52.822;6.860;2023-05-16T10:09:31;13.70;99.90
55173;DHT22;41061;52.822;6.860;2023-05-16T10:12:00;14.20;99.90
55173;DHT22;41061;52.822;6.860;2023-05-16T10:14:35;14.70;99.90
55173;DHT22;41061;52.822;6.860;2023-05-16T10:17:07;14.90;99.90
55173;DHT22;41061;52.822;6.860;2023-05-16T10:19:37;15.20;97.50
55173;DHT22;41061;52.822;6.860;2023-05-16T10:22:04;15.20;95.80
55173;DHT22;41061;52.822;6.860;2023-05-16T10:24:43;15.30;96.70
55173;DHT22;41061;52.822;6.860;2023-05-16T10:27:09;15.40;93.70
55173;DHT22;41061;52.822;6.860;2023-05-16T10:29:37;15.20;88.50
55173;DHT22;41061;52.822;6.860;2023-05-16T10:32:03;14.80;88.30
55173;DHT22;41061;52.822;6.860;2023-05-16T10:34:29;14.70;92.20
55173;DHT22;41061;52.822;6.860;2023-05-16T10:36:55;14.50;92.00
55173;DHT22;41061;52.822;6.860;2023-05-16T10:39:21;14.40;93.40
55173;DHT22;41061;52.822;6.860;2023-05-16T10:41:48;14.50;93.20
55173;DHT22;41061;52.822;6.860;2023-05-16T10:44:15;14.70;93.40
55173;DHT22;41061;52.822;6.860;2023-05-16T10:46:41;15.00;95.10
55173;DHT22;41061;52.822;6.860;2023-05-16T10:49:21;15.50;99.90
55173;DHT22;41061;52.822;6.860;2023-05-16T10:52:05;15.80;99.30
55173;DHT22;41061;52.822;6.860;2023-05-16T10:54:39;16.10;97.30
55173;DHT22;41061;52.822;6.860;2023-05-16T10:57:16;16.10;92.90
55173;DHT22;41061;52.822;6.860;2023-05-16T10:59:48;16.40;99.90
55173;DHT22;41061;52.822;6.860;2023-05-16T11:04:51;16.10;90.90
55173;DHT22;41061;52.822;6.860;2023-05-16T11:07:18;15.50;89.40
55173;DHT22;41061;52.822;6.860;2023-05-16T11:09:44;15.20;91.90
55173;DHT22;41061;52.822;6.860;2023-05-16T11:12:12;14.80;99.90
55173;DHT22;41061;52.822;6.860;2023-05-16T11:14:39;14.40;98.40
55173;DHT22;41061;52.822;6.860;2023-05-16T11:17:20;14.30;94.10
55173;DHT22;41061;52.822;6.860;2023-05-16T11:19:53;14.40;95.40
55173;DHT22;41061;52.822;6.860;2023-05-16T11:22:24;14.70;96.50
55173;DHT22;41061;52.822;6.860;2023-05-16T11:27:25;15.50;99.90
55173;DHT22;41061;52.822;6.860;2023-05-16T11:29:51;15.90;99.90
55173;DHT22;41061;52.822;6.860;2023-05-16T11:32:21;16.00;90.20
55173;DHT22;41061;52.822;6.860;2023-05-16T11:34:48;16.20;89.50
55173;DHT22;41061;52.822;6.860;2023-05-16T11:39:44;16.80;99.90
55173;DHT22;41061;52.822;6.860;2023-05-16T11:44:39;16.50;81.50
55173;DHT22;41061;52.822;6.860;2023-05-16T11:47:06;16.30;99.90
55173;DHT22;41061;52.822;6.860;2023-05-16T11:49:32;16.60;99.90
55173;DHT22;41061;52.822;6.860;2023-05-16T12:09:30;17.20;99.90
55173;DHT22;41061;52.822;6.860;2023-05-16T12:11:56;17.20;99.90
55173;DHT22;41061;52.822;6.860;2023-05-16T12:26:39;15.50;75.40
55173;DHT22;41061;52.822;6.860;2023-05-16T12:29:05;15.40;75.60
55173;DHT22;41061;52.822;6.860;2023-05-16T12:31:35;15.00;78.30
55173;DHT22;41061;52.822;6.860;2023-05-16T12:34:01;14.90;79.80
55173;DHT22;41061;52.822;6.860;2023-05-16T12:36:32;14.80;81.80
55173;DHT22;41061;52.822;6.860;2023-05-16T12:39:00;14.70;83.20
55173;DHT22;41061;52.822;6.860;2023-05-16T12:41:29;14.60;85.20
55173;DHT22;41061;52.822;6.860;2023-05-16T12:44:15;14.60;98.60
55173;DHT22;41061;52.822;6.860;2023-05-16T12:46:49;14.50;95.70
55173;DHT22;41061;52.822;6.860;2023-05-16T12:49:20;14.50;91.80
55173;DHT22;41061;52.822;6.860;2023-05-16T12:51:50;14.40;96.90
55173;DHT22;41061;52.822;6.860;2023-05-16T12:54:17;14.50;96.50
55173;DHT22;41061;52.822;6.860;2023-05-16T12:56:43;14.50;99.70
55173;DHT22;41061;52.822;6.860;2023-05-16T12:59:09;14.80;99.90
55173;DHT22;41061;52.822;6.860;2023-05-16T13:13:49;14.70;99.90
55173;DHT22;41061;52.822;6.860;2023-05-16T13:21:07;15.50;99.90
55173;DHT22;41061;52.822;6.860;2023-05-16T13:28:29;15.60;95.10
55173;DHT22;41061;52.822;6.860;2023-05-16T13:30:56;15.90;95.10
55173;DHT22;41061;52.822;6.860;2023-05-16T13:43:12;14.70;99.90
55173;DHT22;41061;52.822;6.860;2023-05-16T13:45:40;14.50;98.80
55173;DHT22;41061;52.822;6.860;2023-05-16T13:48:05;14.30;98.90
55173;DHT22;41061;52.822;6.860;2023-05-16T13:50:32;14.20;99.90
55173;DHT22;41061;52.822;6.860;2023-05-16T13:52:57;14.20;97.10
55173;DHT22;41061;52.822;6.860;2023-05-16T13:55:23;14.20;96.20
55173;DHT22;41061;52.822;6.860;2023-05-16T13:57:49;14.20;96.40
55173;DHT22;41061;52.822;6.860;2023-05-16T14:00:15;14.20;98.80
55173;DHT22;41061;52.822;6.860;2023-05-16T14:02:41;14.10;99.90
55173;DHT22;41061;52.822;6.860;2023-05-16T14:05:07;14.00;99.90
55173;DHT22;41061;52.822;6.860;2023-05-16T14:07:34;13.90;99.90
55173;DHT22;41061;52.822;6.860;2023-05-16T14:10:00;13.70;99.90
55173;DHT22;41061;52.822;6.860;2023-05-16T14:12:25;13.60;99.90
55173;DHT22;41061;52.822;6.860;2023-05-16T14:14:51;13.30;98.80
55173;DHT22;41061;52.822;6.860;2023-05-16T14:19:46;13.30;99.90
55173;DHT22;41061;52.822;6.860;2023-05-16T14:22:11;13.50;99.90
55173;DHT22;41061;52.822;6.860;2023-05-16T14:24:37;13.70;99.90
55173;DHT22;41061;52.822;6.860;2023-05-16T14:27:03;13.80;99.90
55173;DHT22;41061;52.822;6.860;2023-05-16T14:29:29;14.00;99.90
55173;DHT22;41061;52.822;6.860;2023-05-16T14:31:55;14.00;99.90
55173;DHT22;41061;52.822;6.860;2023-05-16T14:34:20;13.80;99.90
55173;DHT22;41061;52.822;6.860;2023-05-16T14:36:46;13.80;99.90
55173;DHT22;41061;52.822;6.860;2023-05-16T14:39:12;13.40;99.90
55173;DHT22;41061;52.822;6.860;2023-05-16T14:41:38;13.10;99.90
55173;DHT22;41061;52.822;6.860;2023-05-16T14:44:04;12.80;99.90
55173;DHT22;41061;52.822;6.860;2023-05-16T14:46:30;12.70;99.90
55173;DHT22;41061;52.822;6.860;2023-05-16T14:48:55;12.70;99.90
55173;DHT22;41061;52.822;6.860;2023-05-16T14:51:21;12.60;99.90
55173;DHT22;41061;52.822;6.860;2023-05-16T14:53:47;12.60;99.90
55173;DHT22;41061;52.822;6.860;2023-05-16T14:56:13;12.40;99.90
55173;DHT22;41061;52.822;6.860;2023-05-16T14:58:39;12.20;99.90
55173;DHT22;41061;52.822;6.860;2023-05-16T15:01:05;11.90;99.90
55173;DHT22;41061;52.822;6.860;2023-05-16T15:03:30;11.70;99.90
55173;DHT22;41061;52.822;6.860;2023-05-16T15:05:57;11.60;99.90
55173;DHT22;41061;52.822;6.860;2023-05-16T15:08:23;11.60;99.90
55173;DHT22;41061;52.822;6.860;2023-05-16T15:10:49;11.80;99.90
55173;DHT22;41061;52.822;6.860;2023-05-16T15:13:15;12.20;99.90
55173;DHT22;41061;52.822;6.860;2023-05-16T15:15:40;12.70;99.90
55173;DHT22;41061;52.822;6.860;2023-05-16T15:18:07;13.00;99.90
55173;DHT22;41061;52.822;6.860;2023-05-16T15:20:33;13.00;99.90
55173;DHT22;41061;52.822;6.860;2023-05-16T15:22:58;12.90;99.90
55173;DHT22;41061;52.822;6.860;2023-05-16T15:25:24;12.70;99.90
55173;DHT22;41061;52.822;6.860;2023-05-16T15:27:50;12.50;99.90
55173;DHT22;41061;52.822;6.860;2023-05-16T15:30:16;12.20;99.90
55173;DHT22;41061;52.822;6.860;2023-05-16T15:32:42;12.10;99.90
55173;DHT22;41061;52.822;6.860;2023-05-16T15:35:07;11.80;99.90
55173;DHT22;41061;52.822;6.860;2023-05-16T15:37:33;11.80;99.90
55173;DHT22;41061;52.822;6.860;2023-05-16T15:39:59;11.90;99.90
55173;DHT22;41061;52.822;6.860;2023-05-16T15:42:25;11.90;99.90
55173;DHT22;41061;52.822;6.860;2023-05-16T15:44:51;12.00;99.90
55173;DHT22;41061;52.822;6.860;2023-05-16T15:47:16;11.90;99.90
55173;DHT22;41061;52.822;6.860;2023-05-16T15:49:42;11.90;99.90
55173;DHT22;41061;52.822;6.860;2023-05-16T15:52:08;11.80;99.90
55173;DHT22;41061;52.822;6.860;2023-05-16T15:54:35;11.80;99.90
55173;DHT22;41061;52.822;6.860;2023-05-16T15:57:00;11.80;99.90
55173;DHT22;41061;52.822;6.860;2023-05-16T15:59:26;11.80;99.90
55173;DHT22;41061;52.822;6.860;2023-05-16T16:01:52;11.80;99.90
55173;DHT22;41061;52.822;6.860;2023-05-16T16:04:20;11.90;99.90
55173;DHT22;41061;52.822;6.860;2023-05-16T16:06:46;11.90;99.90
55173;DHT22;41061;52.822;6.860;2023-05-16T16:09:12;11.90;99.90
55173;DHT22;41061;52.822;6.860;2023-05-16T16:11:38;11.90;99.90
55173;DHT22;41061;52.822;6.860;2023-05-16T16:14:03;11.90;99.90
55173;DHT22;41061;52.822;6.860;2023-05-16T16:16:29;11.90;99.90
55173;DHT22;41061;52.822;6.860;2023-05-16T16:18:55;11.90;99.90
55173;DHT22;41061;52.822;6.860;2023-05-16T16:21:20;11.90;99.90
55173;DHT22;41061;52.822;6.860;2023-05-16T16:23:48;11.90;99.90
55173;DHT22;41061;52.822;6.860;2023-05-16T16:26:13;11.90;99.90
55173;DHT22;41061;52.822;6.860;2023-05-16T16:28:39;12.00;99.90
55173;DHT22;41061;52.822;6.860;2023-05-16T16:31:05;12.10;99.90
55173;DHT22;41061;52.822;6.860;2023-05-16T16:33:31;12.20;99.90
55173;DHT22;41061;52.822;6.860;2023-05-16T16:35:59;12.20;99.90
55173;DHT22;41061;52.822;6.860;2023-05-16T16:38:24;12.30;99.90
55173;DHT22;41061;52.822;6.860;2023-05-16T16:40:50;12.30;99.90
55173;DHT22;41061;52.822;6.860;2023-05-16T16:43:16;12.30;99.90
55173;DHT22;41061;52.822;6.860;2023-05-16T16:45:41;12.40;99.90
55173;DHT22;41061;52.822;6.860;2023-05-16T16:48:07;12.40;99.90
55173;DHT22;41061;52.822;6.860;2023-05-16T16:50:36;12.40;99.90
55173;DHT22;41061;52.822;6.860;2023-05-16T16:53:02;12.30;99.90
55173;DHT22;41061;52.822;6.860;2023-05-16T16:55:29;11.90;99.90
55173;DHT22;41061;52.822;6.860;2023-05-16T16:57:54;11.70;99.90
55173;DHT22;41061;52.822;6.860;2023-05-16T17:07:38;10.80;99.90